Portada
METAR-TAF:

METAR-TAF

Aeropuertos :

León, España

Aeropuerto de León

latitud: 42-35N, longitud: 005-39W, altitud: 926 m

Observación

El informe se hizo hace 1 hora y 7 minutos, a las 07:00 UTC
Viento 2 kt con dirección variable
Temperatura 3°C
Humedad 93%
Presión 1025 hPa
Visibilidad 10 km o más
Nubes dispersas a una altura de 200 ft
Nubes dispersas a una altura de 5000 ft

METAR: LELN 280700Z VRB02KT 9999 SCT002 SCT050 03/02 Q1025

Hora: 10:07 (08:07 UTC)

Pronóstico

El informe se hizo hace 3 horas y 7 minutos, a las 05:00 UTC
Pronóstico válido del 28 a las 06 UTC al 28 a las 15 UTC
Viento 4 kt con dirección variable
Visibilidad 10 km o más
Nubes dispersas a una altura de 1000 ft
Probabilidad 40% :
Temporalmente
del 28 a las 06 UTC al 28 a las 09 UTC
Visibilidad: 0800 m
Cielo nuboso a una altura de 600 ft
niebla en bancos

TAF: LELN 280500Z 2806/2815 VRB04KT 9999 SCT010 PROB40 TEMPO 2806/2809 0800 BCFG BKN006

Observaciones y pronósticos meteorológicos de más de 4000 aeropuertos (mensajes METAR y TAF).

Los puntos amarillos y rojos representan las estaciones disponibles.

Ponga el ratón en el punto deseado para ver el nombre de la estación.

Haga clic para ver las observaciones y los pronósticos meteorológicos.

Para cambiar el mapa : haga clic en los botones verdes con una cruz de color negro para hacer un zoom, en el botón verde con un guión para alejar o en las flechas verdes para mapas adyacentes.


METAR-TAF: